sensor_id;sensor_type;location;lat;lon;timestamp;P1;durP1;ratioP1;P2;durP2;ratioP2
73954;SDS011;62306;52.516;13.290;2022-09-24T00:00:30;8.73;;;6.80;;
73954;SDS011;62306;52.516;13.290;2022-09-24T00:02:59;9.15;;;7.20;;
73954;SDS011;62306;52.516;13.290;2022-09-24T00:05:26;12.65;;;6.90;;
73954;SDS011;62306;52.516;13.290;2022-09-24T00:07:53;8.57;;;6.93;;
73954;SDS011;62306;52.516;13.290;2022-09-24T00:10:20;10.70;;;7.45;;
73954;SDS011;62306;52.516;13.290;2022-09-24T00:12:47;10.85;;;6.85;;
73954;SDS011;62306;52.516;13.290;2022-09-24T00:15:16;10.82;;;6.60;;
73954;SDS011;62306;52.516;13.290;2022-09-24T00:17:43;9.65;;;6.70;;
73954;SDS011;62306;52.516;13.290;2022-09-24T00:20:12;10.60;;;7.00;;
73954;SDS011;62306;52.516;13.290;2022-09-24T00:22:39;11.93;;;7.53;;
73954;SDS011;62306;52.516;13.290;2022-09-24T00:25:06;9.95;;;7.45;;
73954;SDS011;62306;52.516;13.290;2022-09-24T00:27:51;9.90;;;6.97;;
73954;SDS011;62306;52.516;13.290;2022-09-24T00:30:18;10.07;;;6.68;;
73954;SDS011;62306;52.516;13.290;2022-09-24T00:32:45;9.88;;;7.22;;
73954;SDS011;62306;52.516;13.290;2022-09-24T00:35:13;10.13;;;7.05;;
73954;SDS011;62306;52.516;13.290;2022-09-24T00:37:40;9.88;;;7.50;;
73954;SDS011;62306;52.516;13.290;2022-09-24T00:40:09;10.40;;;7.45;;
73954;SDS011;62306;52.516;13.290;2022-09-24T00:42:36;9.90;;;7.60;;
73954;SDS011;62306;52.516;13.290;2022-09-24T00:45:03;9.38;;;6.90;;
73954;SDS011;62306;52.516;13.290;2022-09-24T00:47:31;12.65;;;8.20;;
73954;SDS011;62306;52.516;13.290;2022-09-24T00:50:03;10.48;;;7.50;;
73954;SDS011;62306;52.516;13.290;2022-09-24T00:52:36;9.43;;;7.50;;
73954;SDS011;62306;52.516;13.290;2022-09-24T00:55:06;12.85;;;7.88;;
73954;SDS011;62306;52.516;13.290;2022-09-24T00:57:35;13.50;;;8.10;;
73954;SDS011;62306;52.516;13.290;2022-09-24T01:00:03;10.65;;;7.85;;
73954;SDS011;62306;52.516;13.290;2022-09-24T01:02:31;11.48;;;7.68;;
73954;SDS011;62306;52.516;13.290;2022-09-24T01:05:01;10.68;;;7.97;;
73954;SDS011;62306;52.516;13.290;2022-09-24T01:07:29;12.63;;;8.52;;
73954;SDS011;62306;52.516;13.290;2022-09-24T01:09:57;14.73;;;8.27;;
73954;SDS011;62306;52.516;13.290;2022-09-24T01:12:25;11.43;;;7.78;;
73954;SDS011;62306;52.516;13.290;2022-09-24T01:15:02;14.75;;;7.85;;
73954;SDS011;62306;52.516;13.290;2022-09-24T01:17:38;11.45;;;8.23;;
73954;SDS011;62306;52.516;13.290;2022-09-24T01:23:13;19.08;;;8.70;;
73954;SDS011;62306;52.516;13.290;2022-09-24T01:26:01;10.80;;;8.18;;
73954;SDS011;62306;52.516;13.290;2022-09-24T01:28:44;11.13;;;8.02;;
73954;SDS011;62306;52.516;13.290;2022-09-24T01:31:31;16.85;;;8.70;;
73954;SDS011;62306;52.516;13.290;2022-09-24T01:34:02;12.45;;;9.02;;
73954;SDS011;62306;52.516;13.290;2022-09-24T01:36:31;11.40;;;8.27;;
73954;SDS011;62306;52.516;13.290;2022-09-24T01:39:01;11.73;;;8.20;;
73954;SDS011;62306;52.516;13.290;2022-09-24T01:41:31;11.48;;;8.50;;
73954;SDS011;62306;52.516;13.290;2022-09-24T01:44:00;11.40;;;8.38;;
73954;SDS011;62306;52.516;13.290;2022-09-24T01:46:32;11.35;;;8.55;;
73954;SDS011;62306;52.516;13.290;2022-09-24T01:49:03;12.15;;;8.65;;
73954;SDS011;62306;52.516;13.290;2022-09-24T01:51:32;12.95;;;8.30;;
73954;SDS011;62306;52.516;13.290;2022-09-24T01:54:04;10.88;;;8.70;;
73954;SDS011;62306;52.516;13.290;2022-09-24T01:56:36;11.55;;;8.63;;
73954;SDS011;62306;52.516;13.290;2022-09-24T01:59:09;12.75;;;8.57;;
73954;SDS011;62306;52.516;13.290;2022-09-24T02:01:43;12.60;;;8.48;;
73954;SDS011;62306;52.516;13.290;2022-09-24T02:04:15;10.57;;;7.95;;
73954;SDS011;62306;52.516;13.290;2022-09-24T02:06:47;11.18;;;8.70;;
73954;SDS011;62306;52.516;13.290;2022-09-24T02:09:29;12.05;;;9.23;;
73954;SDS011;62306;52.516;13.290;2022-09-24T02:11:59;10.30;;;8.30;;
73954;SDS011;62306;52.516;13.290;2022-09-24T02:17:02;13.55;;;9.25;;
73954;SDS011;62306;52.516;13.290;2022-09-24T02:19:31;12.52;;;8.52;;
73954;SDS011;62306;52.516;13.290;2022-09-24T02:22:03;12.48;;;8.88;;
73954;SDS011;62306;52.516;13.290;2022-09-24T02:24:33;12.63;;;9.20;;
73954;SDS011;62306;52.516;13.290;2022-09-24T02:27:05;12.43;;;9.40;;
73954;SDS011;62306;52.516;13.290;2022-09-24T02:29:32;12.10;;;8.63;;
73954;SDS011;62306;52.516;13.290;2022-09-24T02:32:00;13.23;;;9.07;;
73954;SDS011;62306;52.516;13.290;2022-09-24T02:34:30;11.45;;;8.68;;
73954;SDS011;62306;52.516;13.290;2022-09-24T02:37:02;15.05;;;9.18;;
73954;SDS011;62306;52.516;13.290;2022-09-24T02:39:30;13.80;;;9.70;;
73954;SDS011;62306;52.516;13.290;2022-09-24T02:41:58;12.60;;;9.25;;
73954;SDS011;62306;52.516;13.290;2022-09-24T02:44:25;12.50;;;10.25;;
73954;SDS011;62306;52.516;13.290;2022-09-24T02:46:55;15.40;;;9.35;;
73954;SDS011;62306;52.516;13.290;2022-09-24T02:49:23;15.18;;;9.15;;
73954;SDS011;62306;52.516;13.290;2022-09-24T02:51:50;16.20;;;9.68;;
73954;SDS011;62306;52.516;13.290;2022-09-24T02:54:17;18.25;;;10.02;;
73954;SDS011;62306;52.516;13.290;2022-09-24T02:56:44;12.80;;;9.93;;
73954;SDS011;62306;52.516;13.290;2022-09-24T02:59:11;12.93;;;9.82;;
73954;SDS011;62306;52.516;13.290;2022-09-24T03:01:37;11.05;;;8.98;;
73954;SDS011;62306;52.516;13.290;2022-09-24T03:04:04;14.00;;;8.95;;
73954;SDS011;62306;52.516;13.290;2022-09-24T03:06:33;12.98;;;9.63;;
73954;SDS011;62306;52.516;13.290;2022-09-24T03:09:00;15.40;;;10.20;;
73954;SDS011;62306;52.516;13.290;2022-09-24T03:11:28;15.23;;;9.98;;
73954;SDS011;62306;52.516;13.290;2022-09-24T03:13:57;15.00;;;9.75;;
73954;SDS011;62306;52.516;13.290;2022-09-24T03:16:24;11.73;;;8.60;;
73954;SDS011;62306;52.516;13.290;2022-09-24T03:18:51;11.88;;;9.02;;
73954;SDS011;62306;52.516;13.290;2022-09-24T03:21:19;13.32;;;9.43;;
73954;SDS011;62306;52.516;13.290;2022-09-24T03:23:48;17.35;;;9.77;;
73954;SDS011;62306;52.516;13.290;2022-09-24T03:26:16;11.05;;;9.57;;
73954;SDS011;62306;52.516;13.290;2022-09-24T03:28:43;14.52;;;10.35;;
73954;SDS011;62306;52.516;13.290;2022-09-24T03:31:10;14.93;;;9.82;;
73954;SDS011;62306;52.516;13.290;2022-09-24T03:33:38;15.20;;;10.27;;
73954;SDS011;62306;52.516;13.290;2022-09-24T03:36:06;15.07;;;10.25;;
73954;SDS011;62306;52.516;13.290;2022-09-24T03:38:35;13.25;;;10.23;;
73954;SDS011;62306;52.516;13.290;2022-09-24T03:41:04;13.57;;;10.25;;
73954;SDS011;62306;52.516;13.290;2022-09-24T03:43:32;14.60;;;10.40;;
73954;SDS011;62306;52.516;13.290;2022-09-24T03:45:59;13.30;;;9.75;;
73954;SDS011;62306;52.516;13.290;2022-09-24T03:48:26;13.57;;;10.60;;
73954;SDS011;62306;52.516;13.290;2022-09-24T03:50:55;14.32;;;9.75;;
73954;SDS011;62306;52.516;13.290;2022-09-24T03:53:22;14.50;;;10.25;;
73954;SDS011;62306;52.516;13.290;2022-09-24T03:55:51;14.77;;;10.15;;
73954;SDS011;62306;52.516;13.290;2022-09-24T03:58:21;13.35;;;10.40;;
73954;SDS011;62306;52.516;13.290;2022-09-24T04:00:49;17.40;;;9.95;;
73954;SDS011;62306;52.516;13.290;2022-09-24T04:03:17;14.68;;;10.38;;
73954;SDS011;62306;52.516;13.290;2022-09-24T04:05:44;13.27;;;10.13;;
73954;SDS011;62306;52.516;13.290;2022-09-24T04:08:11;14.07;;;10.95;;
73954;SDS011;62306;52.516;13.290;2022-09-24T04:10:38;17.30;;;10.35;;
73954;SDS011;62306;52.516;13.290;2022-09-24T04:13:05;14.07;;;10.13;;
73954;SDS011;62306;52.516;13.290;2022-09-24T04:15:34;13.80;;;10.40;;
73954;SDS011;62306;52.516;13.290;2022-09-24T04:18:03;13.52;;;9.93;;
73954;SDS011;62306;52.516;13.290;2022-09-24T04:20:30;16.67;;;10.23;;
73954;SDS011;62306;52.516;13.290;2022-09-24T04:22:58;13.23;;;9.90;;
73954;SDS011;62306;52.516;13.290;2022-09-24T04:25:26;15.95;;;10.27;;
73954;SDS011;62306;52.516;13.290;2022-09-24T04:27:55;16.23;;;10.10;;
73954;SDS011;62306;52.516;13.290;2022-09-24T04:30:23;12.98;;;9.40;;
73954;SDS011;62306;52.516;13.290;2022-09-24T04:32:53;15.32;;;9.90;;
73954;SDS011;62306;52.516;13.290;2022-09-24T04:35:21;14.52;;;9.95;;
73954;SDS011;62306;52.516;13.290;2022-09-24T04:37:48;13.82;;;9.30;;
73954;SDS011;62306;52.516;13.290;2022-09-24T04:40:15;14.65;;;9.82;;
73954;SDS011;62306;52.516;13.290;2022-09-24T04:42:43;15.38;;;9.65;;
73954;SDS011;62306;52.516;13.290;2022-09-24T04:45:11;12.48;;;9.18;;
73954;SDS011;62306;52.516;13.290;2022-09-24T04:47:41;11.85;;;9.48;;
73954;SDS011;62306;52.516;13.290;2022-09-24T04:50:10;15.82;;;10.40;;
73954;SDS011;62306;52.516;13.290;2022-09-24T04:52:37;17.55;;;10.07;;
73954;SDS011;62306;52.516;13.290;2022-09-24T04:55:05;18.73;;;10.40;;
73954;SDS011;62306;52.516;13.290;2022-09-24T04:57:32;12.05;;;9.40;;
73954;SDS011;62306;52.516;13.290;2022-09-24T05:00:00;13.48;;;9.75;;
73954;SDS011;62306;52.516;13.290;2022-09-24T05:02:29;13.52;;;10.05;;
73954;SDS011;62306;52.516;13.290;2022-09-24T05:04:56;13.07;;;10.10;;
73954;SDS011;62306;52.516;13.290;2022-09-24T05:07:24;16.90;;;10.30;;
73954;SDS011;62306;52.516;13.290;2022-09-24T05:09:51;15.25;;;9.68;;
73954;SDS011;62306;52.516;13.290;2022-09-24T05:12:18;12.65;;;10.15;;
73954;SDS011;62306;52.516;13.290;2022-09-24T05:14:45;14.32;;;10.40;;
73954;SDS011;62306;52.516;13.290;2022-09-24T05:17:12;11.98;;;9.85;;
73954;SDS011;62306;52.516;13.290;2022-09-24T05:19:40;16.20;;;10.40;;
73954;SDS011;62306;52.516;13.290;2022-09-24T05:22:07;13.70;;;9.68;;
73954;SDS011;62306;52.516;13.290;2022-09-24T05:24:35;15.93;;;9.63;;
73954;SDS011;62306;52.516;13.290;2022-09-24T05:27:02;14.98;;;9.70;;
73954;SDS011;62306;52.516;13.290;2022-09-24T05:29:34;14.15;;;9.13;;
73954;SDS011;62306;52.516;13.290;2022-09-24T05:32:02;13.50;;;9.85;;
73954;SDS011;62306;52.516;13.290;2022-09-24T05:34:31;14.63;;;10.27;;
73954;SDS011;62306;52.516;13.290;2022-09-24T05:36:58;16.17;;;10.90;;
73954;SDS011;62306;52.516;13.290;2022-09-24T05:39:25;12.98;;;10.15;;
73954;SDS011;62306;52.516;13.290;2022-09-24T05:41:53;13.93;;;9.93;;
73954;SDS011;62306;52.516;13.290;2022-09-24T05:44:21;14.38;;;9.77;;
73954;SDS011;62306;52.516;13.290;2022-09-24T05:46:49;14.43;;;10.38;;
73954;SDS011;62306;52.516;13.290;2022-09-24T05:49:16;13.70;;;9.93;;
73954;SDS011;62306;52.516;13.290;2022-09-24T05:51:43;21.52;;;11.25;;
73954;SDS011;62306;52.516;13.290;2022-09-24T05:54:13;13.82;;;9.45;;
73954;SDS011;62306;52.516;13.290;2022-09-24T05:56:40;14.13;;;9.88;;
73954;SDS011;62306;52.516;13.290;2022-09-24T05:59:08;12.57;;;9.60;;
73954;SDS011;62306;52.516;13.290;2022-09-24T06:01:35;15.50;;;9.10;;
73954;SDS011;62306;52.516;13.290;2022-09-24T06:04:02;13.63;;;9.93;;
73954;SDS011;62306;52.516;13.290;2022-09-24T06:06:29;15.73;;;9.88;;
73954;SDS011;62306;52.516;13.290;2022-09-24T06:08:56;13.13;;;9.63;;
73954;SDS011;62306;52.516;13.290;2022-09-24T06:11:23;14.05;;;9.98;;
73954;SDS011;62306;52.516;13.290;2022-09-24T06:13:52;15.27;;;9.60;;
73954;SDS011;62306;52.516;13.290;2022-09-24T06:16:20;14.23;;;9.70;;
73954;SDS011;62306;52.516;13.290;2022-09-24T06:18:47;16.48;;;10.07;;
73954;SDS011;62306;52.516;13.290;2022-09-24T06:21:14;15.88;;;10.10;;
73954;SDS011;62306;52.516;13.290;2022-09-24T06:23:42;12.57;;;10.00;;
73954;SDS011;62306;52.516;13.290;2022-09-24T06:26:11;14.48;;;9.85;;
73954;SDS011;62306;52.516;13.290;2022-09-24T06:28:39;15.85;;;9.55;;
73954;SDS011;62306;52.516;13.290;2022-09-24T06:31:07;13.90;;;9.98;;
73954;SDS011;62306;52.516;13.290;2022-09-24T06:33:37;15.55;;;10.32;;
73954;SDS011;62306;52.516;13.290;2022-09-24T06:36:05;16.00;;;10.75;;
73954;SDS011;62306;52.516;13.290;2022-09-24T06:38:32;17.80;;;10.30;;
73954;SDS011;62306;52.516;13.290;2022-09-24T06:40:59;15.88;;;10.00;;
73954;SDS011;62306;52.516;13.290;2022-09-24T06:43:27;14.73;;;10.25;;
73954;SDS011;62306;52.516;13.290;2022-09-24T06:45:54;12.70;;;9.68;;
73954;SDS011;62306;52.516;13.290;2022-09-24T06:48:22;18.98;;;12.02;;
73954;SDS011;62306;52.516;13.290;2022-09-24T06:50:51;14.98;;;10.13;;
73954;SDS011;62306;52.516;13.290;2022-09-24T06:53:18;12.77;;;9.93;;
73954;SDS011;62306;52.516;13.290;2022-09-24T06:55:46;14.65;;;9.60;;
73954;SDS011;62306;52.516;13.290;2022-09-24T06:58:14;16.85;;;10.07;;
73954;SDS011;62306;52.516;13.290;2022-09-24T07:00:48;14.50;;;9.55;;
73954;SDS011;62306;52.516;13.290;2022-09-24T07:03:17;13.43;;;9.73;;
73954;SDS011;62306;52.516;13.290;2022-09-24T07:05:44;18.33;;;10.30;;
73954;SDS011;62306;52.516;13.290;2022-09-24T07:08:12;12.95;;;10.05;;
73954;SDS011;62306;52.516;13.290;2022-09-24T07:10:40;15.60;;;10.95;;
73954;SDS011;62306;52.516;13.290;2022-09-24T07:13:08;13.30;;;9.27;;
73954;SDS011;62306;52.516;13.290;2022-09-24T07:15:36;15.20;;;10.77;;
73954;SDS011;62306;52.516;13.290;2022-09-24T07:18:02;13.10;;;9.75;;
73954;SDS011;62306;52.516;13.290;2022-09-24T07:20:29;18.63;;;10.73;;
73954;SDS011;62306;52.516;13.290;2022-09-24T07:22:58;15.75;;;11.02;;
73954;SDS011;62306;52.516;13.290;2022-09-24T07:25:26;14.40;;;9.90;;
73954;SDS011;62306;52.516;13.290;2022-09-24T07:27:53;16.33;;;9.85;;
73954;SDS011;62306;52.516;13.290;2022-09-24T07:30:20;13.30;;;10.38;;
73954;SDS011;62306;52.516;13.290;2022-09-24T07:32:52;16.38;;;9.50;;
73954;SDS011;62306;52.516;13.290;2022-09-24T07:35:20;16.48;;;10.00;;
73954;SDS011;62306;52.516;13.290;2022-09-24T07:37:47;12.60;;;9.38;;
73954;SDS011;62306;52.516;13.290;2022-09-24T07:40:14;15.32;;;10.82;;
73954;SDS011;62306;52.516;13.290;2022-09-24T07:42:46;16.73;;;10.13;;
73954;SDS011;62306;52.516;13.290;2022-09-24T07:45:14;13.27;;;10.15;;
73954;SDS011;62306;52.516;13.290;2022-09-24T07:47:41;15.52;;;10.23;;
73954;SDS011;62306;52.516;13.290;2022-09-24T07:50:08;13.82;;;10.48;;
73954;SDS011;62306;52.516;13.290;2022-09-24T07:52:36;17.17;;;11.40;;
73954;SDS011;62306;52.516;13.290;2022-09-24T07:55:03;17.15;;;11.13;;
73954;SDS011;62306;52.516;13.290;2022-09-24T07:57:31;16.13;;;9.85;;
73954;SDS011;62306;52.516;13.290;2022-09-24T07:59:59;15.98;;;10.60;;
73954;SDS011;62306;52.516;13.290;2022-09-24T08:02:26;19.92;;;10.18;;
73954;SDS011;62306;52.516;13.290;2022-09-24T08:04:53;14.30;;;10.93;;
73954;SDS011;62306;52.516;13.290;2022-09-24T08:07:20;14.18;;;10.07;;
73954;SDS011;62306;52.516;13.290;2022-09-24T08:09:47;13.18;;;9.98;;
73954;SDS011;62306;52.516;13.290;2022-09-24T08:12:14;15.55;;;10.05;;
73954;SDS011;62306;52.516;13.290;2022-09-24T08:14:41;14.40;;;10.00;;
73954;SDS011;62306;52.516;13.290;2022-09-24T08:17:09;13.02;;;10.05;;
73954;SDS011;62306;52.516;13.290;2022-09-24T08:19:36;16.27;;;10.82;;
73954;SDS011;62306;52.516;13.290;2022-09-24T08:22:07;14.35;;;10.00;;
73954;SDS011;62306;52.516;13.290;2022-09-24T08:24:34;13.23;;;9.70;;
73954;SDS011;62306;52.516;13.290;2022-09-24T08:27:01;14.02;;;10.63;;
73954;SDS011;62306;52.516;13.290;2022-09-24T08:29:27;14.55;;;9.80;;
73954;SDS011;62306;52.516;13.290;2022-09-24T08:31:54;18.50;;;10.30;;
73954;SDS011;62306;52.516;13.290;2022-09-24T08:34:22;15.90;;;11.70;;
73954;SDS011;62306;52.516;13.290;2022-09-24T08:36:49;18.00;;;11.40;;
73954;SDS011;62306;52.516;13.290;2022-09-24T08:39:16;18.52;;;10.63;;
73954;SDS011;62306;52.516;13.290;2022-09-24T08:41:47;13.68;;;9.77;;
73954;SDS011;62306;52.516;13.290;2022-09-24T08:44:19;15.43;;;10.13;;
73954;SDS011;62306;52.516;13.290;2022-09-24T08:47:11;11.80;;;9.10;;
73954;SDS011;62306;52.516;13.290;2022-09-24T08:49:52;12.98;;;9.98;;
73954;SDS011;62306;52.516;13.290;2022-09-24T08:52:28;17.23;;;9.65;;
73954;SDS011;62306;52.516;13.290;2022-09-24T08:55:13;18.25;;;10.45;;
73954;SDS011;62306;52.516;13.290;2022-09-24T08:57:48;15.93;;;10.07;;
73954;SDS011;62306;52.516;13.290;2022-09-24T09:00:22;11.38;;;9.52;;
73954;SDS011;62306;52.516;13.290;2022-09-24T09:02:51;12.25;;;9.68;;
73954;SDS011;62306;52.516;13.290;2022-09-24T09:05:31;14.90;;;9.70;;
73954;SDS011;62306;52.516;13.290;2022-09-24T09:08:16;14.07;;;9.65;;
73954;SDS011;62306;52.516;13.290;2022-09-24T09:10:48;14.55;;;9.43;;
73954;SDS011;62306;52.516;13.290;2022-09-24T09:13:22;14.82;;;10.00;;
73954;SDS011;62306;52.516;13.290;2022-09-24T09:15:56;12.82;;;9.57;;
73954;SDS011;62306;52.516;13.290;2022-09-24T09:18:27;15.90;;;9.85;;
73954;SDS011;62306;52.516;13.290;2022-09-24T09:21:04;13.90;;;9.38;;
73954;SDS011;62306;52.516;13.290;2022-09-24T09:23:40;10.60;;;8.80;;
73954;SDS011;62306;52.516;13.290;2022-09-24T09:26:12;20.63;;;13.30;;
73954;SDS011;62306;52.516;13.290;2022-09-24T09:28:42;18.17;;;10.48;;
73954;SDS011;62306;52.516;13.290;2022-09-24T09:31:13;16.25;;;10.18;;
73954;SDS011;62306;52.516;13.290;2022-09-24T09:33:54;28.85;;;15.07;;
73954;SDS011;62306;52.516;13.290;2022-09-24T09:36:39;16.17;;;10.85;;
73954;SDS011;62306;52.516;13.290;2022-09-24T09:39:19;14.43;;;9.80;;
73954;SDS011;62306;52.516;13.290;2022-09-24T09:41:56;13.80;;;10.07;;
73954;SDS011;62306;52.516;13.290;2022-09-24T09:46:58;16.08;;;10.60;;
73954;SDS011;62306;52.516;13.290;2022-09-24T09:49:32;18.50;;;9.90;;
73954;SDS011;62306;52.516;13.290;2022-09-24T09:52:08;15.68;;;8.88;;
73954;SDS011;62306;52.516;13.290;2022-09-24T09:54:40;13.25;;;9.43;;
73954;SDS011;62306;52.516;13.290;2022-09-24T09:57:10;13.05;;;10.32;;
73954;SDS011;62306;52.516;13.290;2022-09-24T09:59:39;13.40;;;10.45;;
73954;SDS011;62306;52.516;13.290;2022-09-24T10:02:08;14.13;;;10.32;;
73954;SDS011;62306;52.516;13.290;2022-09-24T10:04:41;16.25;;;9.38;;
73954;SDS011;62306;52.516;13.290;2022-09-24T10:07:10;15.07;;;10.07;;
73954;SDS011;62306;52.516;13.290;2022-09-24T10:09:39;16.42;;;10.00;;
73954;SDS011;62306;52.516;13.290;2022-09-24T10:12:08;13.05;;;9.68;;
73954;SDS011;62306;52.516;13.290;2022-09-24T10:14:41;11.82;;;9.52;;
73954;SDS011;62306;52.516;13.290;2022-09-24T10:17:09;14.40;;;9.52;;
73954;SDS011;62306;52.516;13.290;2022-09-24T10:19:39;12.45;;;9.10;;
73954;SDS011;62306;52.516;13.290;2022-09-24T10:22:14;13.93;;;9.43;;
73954;SDS011;62306;52.516;13.290;2022-09-24T10:24:45;13.02;;;8.77;;
73954;SDS011;62306;52.516;13.290;2022-09-24T10:27:13;11.45;;;9.25;;
73954;SDS011;62306;52.516;13.290;2022-09-24T10:29:50;14.20;;;9.35;;
73954;SDS011;62306;52.516;13.290;2022-09-24T10:32:37;12.50;;;9.27;;
73954;SDS011;62306;52.516;13.290;2022-09-24T10:35:18;12.68;;;8.88;;
73954;SDS011;62306;52.516;13.290;2022-09-24T10:37:50;15.10;;;9.45;;
73954;SDS011;62306;52.516;13.290;2022-09-24T10:40:19;14.27;;;8.57;;
73954;SDS011;62306;52.516;13.290;2022-09-24T10:42:59;22.52;;;9.30;;
73954;SDS011;62306;52.516;13.290;2022-09-24T10:45:40;14.88;;;10.52;;
73954;SDS011;62306;52.516;13.290;2022-09-24T10:48:30;12.38;;;9.20;;
73954;SDS011;62306;52.516;13.290;2022-09-24T10:51:05;17.98;;;9.25;;
73954;SDS011;62306;52.516;13.290;2022-09-24T10:53:42;13.68;;;9.27;;
73954;SDS011;62306;52.516;13.290;2022-09-24T10:56:19;13.52;;;9.77;;
73954;SDS011;62306;52.516;13.290;2022-09-24T10:59:06;18.08;;;10.30;;
73954;SDS011;62306;52.516;13.290;2022-09-24T11:01:43;14.80;;;10.45;;
73954;SDS011;62306;52.516;13.290;2022-09-24T11:04:21;14.68;;;9.80;;
73954;SDS011;62306;52.516;13.290;2022-09-24T11:07:07;18.00;;;9.20;;
73954;SDS011;62306;52.516;13.290;2022-09-24T11:09:52;12.40;;;9.88;;
73954;SDS011;62306;52.516;13.290;2022-09-24T11:12:27;12.48;;;9.68;;
73954;SDS011;62306;52.516;13.290;2022-09-24T11:15:05;33.35;;;19.75;;
73954;SDS011;62306;52.516;13.290;2022-09-24T11:17:46;18.17;;;10.38;;
73954;SDS011;62306;52.516;13.290;2022-09-24T11:20:29;11.90;;;8.90;;
73954;SDS011;62306;52.516;13.290;2022-09-24T11:25:49;15.95;;;8.52;;
73954;SDS011;62306;52.516;13.290;2022-09-24T11:28:29;17.48;;;8.60;;
73954;SDS011;62306;52.516;13.290;2022-09-24T11:31:11;13.00;;;8.35;;
73954;SDS011;62306;52.516;13.290;2022-09-24T11:33:48;11.03;;;7.37;;
73954;SDS011;62306;52.516;13.290;2022-09-24T11:36:28;13.32;;;9.18;;
73954;SDS011;62306;52.516;13.290;2022-09-24T11:39:06;13.15;;;8.98;;
73954;SDS011;62306;52.516;13.290;2022-09-24T11:41:48;12.70;;;8.27;;
73954;SDS011;62306;52.516;13.290;2022-09-24T11:44:45;12.32;;;7.20;;
73954;SDS011;62306;52.516;13.290;2022-09-24T11:47:35;14.02;;;9.18;;
73954;SDS011;62306;52.516;13.290;2022-09-24T11:50:14;9.55;;;7.68;;
73954;SDS011;62306;52.516;13.290;2022-09-24T11:52:49;13.18;;;9.90;;
73954;SDS011;62306;52.516;13.290;2022-09-24T11:55:22;12.55;;;8.77;;
73954;SDS011;62306;52.516;13.290;2022-09-24T11:57:59;13.20;;;9.52;;
73954;SDS011;62306;52.516;13.290;2022-09-24T12:00:38;19.88;;;11.65;;
73954;SDS011;62306;52.516;13.290;2022-09-24T12:03:11;7.47;;;6.40;;
73954;SDS011;62306;52.516;13.290;2022-09-24T12:05:44;11.07;;;7.25;;
73954;SDS011;62306;52.516;13.290;2022-09-24T12:08:15;10.63;;;6.70;;
73954;SDS011;62306;52.516;13.290;2022-09-24T12:10:47;14.57;;;8.35;;
73954;SDS011;62306;52.516;13.290;2022-09-24T12:15:53;11.73;;;7.50;;
73954;SDS011;62306;52.516;13.290;2022-09-24T12:18:22;11.32;;;7.00;;
73954;SDS011;62306;52.516;13.290;2022-09-24T12:20:52;11.27;;;7.60;;
73954;SDS011;62306;52.516;13.290;2022-09-24T12:23:26;9.73;;;8.20;;
73954;SDS011;62306;52.516;13.290;2022-09-24T12:25:56;9.52;;;7.30;;
73954;SDS011;62306;52.516;13.290;2022-09-24T12:28:28;8.73;;;6.82;;
73954;SDS011;62306;52.516;13.290;2022-09-24T12:31:19;10.73;;;7.60;;
73954;SDS011;62306;52.516;13.290;2022-09-24T12:34:12;14.02;;;8.85;;
73954;SDS011;62306;52.516;13.290;2022-09-24T12:36:49;11.13;;;9.13;;
73954;SDS011;62306;52.516;13.290;2022-09-24T12:39:23;11.25;;;7.15;;
73954;SDS011;62306;52.516;13.290;2022-09-24T12:41:55;9.13;;;7.57;;
73954;SDS011;62306;52.516;13.290;2022-09-24T12:44:28;10.05;;;7.18;;
73954;SDS011;62306;52.516;13.290;2022-09-24T12:47:00;11.57;;;6.88;;
73954;SDS011;62306;52.516;13.290;2022-09-24T12:49:28;12.13;;;6.95;;
73954;SDS011;62306;52.516;13.290;2022-09-24T12:51:59;9.98;;;7.13;;
73954;SDS011;62306;52.516;13.290;2022-09-24T12:54:28;11.52;;;7.25;;
73954;SDS011;62306;52.516;13.290;2022-09-24T12:57:03;10.35;;;6.57;;
73954;SDS011;62306;52.516;13.290;2022-09-24T12:59:33;9.02;;;6.53;;
73954;SDS011;62306;52.516;13.290;2022-09-24T13:02:14;7.75;;;6.28;;
73954;SDS011;62306;52.516;13.290;2022-09-24T13:04:43;8.63;;;7.60;;
73954;SDS011;62306;52.516;13.290;2022-09-24T13:10:09;12.43;;;7.25;;
73954;SDS011;62306;52.516;13.290;2022-09-24T13:12:46;9.30;;;6.80;;
73954;SDS011;62306;52.516;13.290;2022-09-24T13:15:20;9.10;;;6.55;;
73954;SDS011;62306;52.516;13.290;2022-09-24T13:18:16;10.88;;;6.97;;
73954;SDS011;62306;52.516;13.290;2022-09-24T13:20:55;11.15;;;7.30;;
73954;SDS011;62306;52.516;13.290;2022-09-24T13:23:28;12.57;;;6.68;;
73954;SDS011;62306;52.516;13.290;2022-09-24T13:26:00;11.40;;;8.20;;
73954;SDS011;62306;52.516;13.290;2022-09-24T13:28:29;8.05;;;7.07;;
73954;SDS011;62306;52.516;13.290;2022-09-24T13:31:01;18.25;;;8.40;;
73954;SDS011;62306;52.516;13.290;2022-09-24T13:33:38;11.23;;;7.57;;
73954;SDS011;62306;52.516;13.290;2022-09-24T13:36:09;8.77;;;7.10;;
73954;SDS011;62306;52.516;13.290;2022-09-24T13:38:42;7.40;;;6.15;;
73954;SDS011;62306;52.516;13.290;2022-09-24T13:41:28;7.63;;;6.55;;
73954;SDS011;62306;52.516;13.290;2022-09-24T13:46:30;16.75;;;9.38;;
73954;SDS011;62306;52.516;13.290;2022-09-24T13:49:01;9.15;;;6.75;;
73954;SDS011;62306;52.516;13.290;2022-09-24T13:51:35;8.63;;;7.00;;
73954;SDS011;62306;52.516;13.290;2022-09-24T13:54:06;9.43;;;7.80;;
73954;SDS011;62306;52.516;13.290;2022-09-24T13:56:41;11.55;;;7.53;;
73954;SDS011;62306;52.516;13.290;2022-09-24T13:59:10;11.77;;;8.73;;
73954;SDS011;62306;52.516;13.290;2022-09-24T14:01:39;10.52;;;7.45;;
73954;SDS011;62306;52.516;13.290;2022-09-24T14:04:13;8.18;;;6.30;;
73954;SDS011;62306;52.516;13.290;2022-09-24T14:06:42;11.60;;;6.80;;
73954;SDS011;62306;52.516;13.290;2022-09-24T14:09:16;13.02;;;7.30;;
73954;SDS011;62306;52.516;13.290;2022-09-24T14:11:52;15.52;;;7.10;;
73954;SDS011;62306;52.516;13.290;2022-09-24T14:14:20;8.93;;;7.32;;
73954;SDS011;62306;52.516;13.290;2022-09-24T14:16:51;8.50;;;7.35;;
73954;SDS011;62306;52.516;13.290;2022-09-24T14:19:19;10.18;;;8.18;;
73954;SDS011;62306;52.516;13.290;2022-09-24T14:21:47;8.00;;;6.38;;
73954;SDS011;62306;52.516;13.290;2022-09-24T14:24:17;8.02;;;6.45;;
73954;SDS011;62306;52.516;13.290;2022-09-24T14:26:47;9.25;;;6.40;;
73954;SDS011;62306;52.516;13.290;2022-09-24T14:29:19;10.93;;;7.05;;
73954;SDS011;62306;52.516;13.290;2022-09-24T14:31:52;9.07;;;6.80;;
73954;SDS011;62306;52.516;13.290;2022-09-24T14:34:23;8.70;;;6.72;;
73954;SDS011;62306;52.516;13.290;2022-09-24T14:36:52;8.95;;;6.82;;
73954;SDS011;62306;52.516;13.290;2022-09-24T14:39:21;12.88;;;6.55;;
73954;SDS011;62306;52.516;13.290;2022-09-24T14:41:50;10.68;;;7.35;;
73954;SDS011;62306;52.516;13.290;2022-09-24T14:44:19;12.10;;;7.47;;
73954;SDS011;62306;52.516;13.290;2022-09-24T14:46:48;8.88;;;5.90;;
73954;SDS011;62306;52.516;13.290;2022-09-24T14:49:19;7.15;;;5.88;;
73954;SDS011;62306;52.516;13.290;2022-09-24T14:51:52;7.78;;;6.10;;
73954;SDS011;62306;52.516;13.290;2022-09-24T14:54:24;12.38;;;9.25;;
73954;SDS011;62306;52.516;13.290;2022-09-24T14:59:28;12.45;;;7.80;;
73954;SDS011;62306;52.516;13.290;2022-09-24T15:02:03;10.27;;;6.40;;